Clearbrook, Washington
Current Conditions -  °F | °C
As of 2:00 PM on Monday 20 Oct 2014 (Local Time) from CYXX Reporting Station
Overcast Overcast  
Wind Chill: 15°   Ceiling: 4000
Heat Index: 15°   Visibility: 20mi
Dew Point: 14°   Wind: 7mph
Humidity: 94%   Direction: 260°W
Pressure: 29.73"   Gusts: NA
Location:  48.9612°N, 122.12°W
Report Text: CYXX 202100Z 26006KT 20SM FEW005 BKN040 BKN080 OVC120 15/14 A2973 RMK SF1SC4AC2AC1 SLP067 DENSITY ALT 400FT
Loading
Personal Weather Stations






























Interactive Weather Map
Tropical Storm Tracking
New forecast layout! Learn more

10-Day Weather Forecast

Advertisements
Track Severe Weather on mobile